createdAt,value
2016-08-19T00:00:17.051Z,0
2016-08-19T00:01:30.228Z,0
2016-08-19T00:02:43.402Z,0
2016-08-19T00:03:56.578Z,0
2016-08-19T00:05:09.568Z,0
2016-08-19T00:06:22.539Z,0
2016-08-19T00:07:35.519Z,0
2016-08-19T00:08:48.502Z,0
2016-08-19T00:10:01.483Z,0
2016-08-19T00:11:14.458Z,0
2016-08-19T00:12:27.436Z,0
2016-08-19T00:13:40.419Z,0
2016-08-19T00:14:53.392Z,0
2016-08-19T00:16:06.366Z,0
2016-08-19T00:17:19.352Z,0
2016-08-19T00:18:32.338Z,0
2016-08-19T00:19:45.527Z,0
2016-08-19T00:20:58.510Z,0
2016-08-19T00:22:11.480Z,0
2016-08-19T00:23:24.459Z,0
2016-08-19T00:24:37.453Z,0
2016-08-19T00:25:50.438Z,0
2016-08-19T00:27:03.418Z,0
2016-08-19T00:28:16.397Z,0
2016-08-19T00:29:29.368Z,0
2016-08-19T00:30:42.542Z,0
2016-08-19T00:31:55.526Z,0
2016-08-19T00:33:08.507Z,0
2016-08-19T00:34:21.497Z,0
2016-08-19T00:35:34.684Z,0
2016-08-19T00:36:47.650Z,0
2016-08-19T00:38:00.628Z,0
2016-08-19T00:39:13.808Z,0
2016-08-19T00:40:26.778Z,0
2016-08-19T00:41:39.760Z,0
2016-08-19T00:42:52.746Z,0
2016-08-19T00:44:05.743Z,0
2016-08-19T00:45:18.732Z,0
2016-08-19T00:46:31.711Z,0
2016-08-19T00:47:44.887Z,0
2016-08-19T00:48:58.079Z,0
2016-08-19T00:50:11.059Z,0
2016-08-19T00:51:24.036Z,0
2016-08-19T00:52:37.226Z,0
2016-08-19T00:53:50.397Z,0
2016-08-19T00:55:03.367Z,0
2016-08-19T00:56:16.354Z,0
2016-08-19T00:57:29.324Z,0
2016-08-19T00:58:42.497Z,0
2016-08-19T00:59:55.477Z,0
2016-08-19T01:01:08.456Z,0
2016-08-19T01:02:21.645Z,0
2016-08-19T01:03:34.630Z,0
2016-08-19T01:04:47.610Z,0
2016-08-19T01:06:00.589Z,0
2016-08-19T01:07:13.566Z,0
2016-08-19T01:08:26.552Z,0
2016-08-19T01:09:39.528Z,0
2016-08-19T01:10:52.557Z,0
2016-08-19T01:12:05.539Z,0
2016-08-19T01:13:18.513Z,0
2016-08-19T01:14:31.518Z,0
2016-08-19T01:15:44.504Z,0
2016-08-19T01:16:57.493Z,0
2016-08-19T01:18:10.677Z,0
2016-08-19T01:19:23.657Z,0
2016-08-19T01:20:36.852Z,0
2016-08-19T01:21:49.827Z,0
2016-08-19T01:23:03.007Z,0
2016-08-19T01:24:15.987Z,0
2016-08-19T01:25:28.970Z,0
2016-08-19T01:26:41.942Z,0
2016-08-19T01:27:55.115Z,0
2016-08-19T01:29:08.095Z,0
2016-08-19T01:30:21.095Z,0
2016-08-19T01:31:34.076Z,0
2016-08-19T01:32:47.055Z,0
2016-08-19T01:34:00.048Z,0
2016-08-19T01:35:13.023Z,0
2016-08-19T01:36:26.174Z,0
2016-08-19T01:37:39.151Z,0
2016-08-19T01:38:52.136Z,0
2016-08-19T01:40:05.110Z,0
2016-08-19T01:41:18.096Z,0
2016-08-19T01:42:31.275Z,0
2016-08-19T01:43:44.454Z,0
2016-08-19T01:44:57.437Z,0
2016-08-19T01:46:10.408Z,0
2016-08-19T01:47:23.472Z,0
2016-08-19T01:48:36.464Z,0
2016-08-19T01:49:49.448Z,0
2016-08-19T01:51:02.429Z,0
2016-08-19T01:52:15.403Z,0
2016-08-19T01:53:28.378Z,0
2016-08-19T01:54:41.359Z,0
2016-08-19T01:55:54.545Z,0
2016-08-19T01:57:07.715Z,0
2016-08-19T01:58:20.909Z,0
2016-08-19T01:59:33.885Z,0
2016-08-19T02:00:46.877Z,0
2016-08-19T02:01:59.849Z,0
2016-08-19T02:03:12.829Z,0
2016-08-19T02:04:25.818Z,0
2016-08-19T02:05:39.008Z,0
2016-08-19T02:06:52.176Z,0
2016-08-19T02:08:05.171Z,0
2016-08-19T02:09:18.145Z,0
2016-08-19T02:10:31.186Z,0
2016-08-19T02:11:44.160Z,0
2016-08-19T02:12:57.144Z,0
2016-08-19T02:14:10.121Z,0
2016-08-19T02:15:23.102Z,0
2016-08-19T02:16:36.081Z,0
2016-08-19T02:17:49.060Z,0
2016-08-19T02:19:02.032Z,0
2016-08-19T02:20:15.010Z,0
2016-08-19T02:21:27.984Z,0
2016-08-19T02:22:40.972Z,0
2016-08-19T02:23:53.943Z,0
2016-08-19T02:25:07.117Z,0
2016-08-19T02:26:20.099Z,0
2016-08-19T02:27:33.075Z,0
2016-08-19T02:28:46.049Z,0
2016-08-19T02:29:59.027Z,0
2016-08-19T02:31:12.018Z,0
2016-08-19T02:32:25.420Z,0
2016-08-19T02:33:38.394Z,0
2016-08-19T02:34:51.372Z,0
2016-08-19T02:36:04.551Z,0
2016-08-19T02:37:17.542Z,0
2016-08-19T02:38:30.536Z,0
2016-08-19T02:39:43.517Z,0
2016-08-19T02:40:56.493Z,0
2016-08-19T02:42:09.462Z,0
2016-08-19T02:43:22.439Z,0
2016-08-19T02:44:35.417Z,0
2016-08-19T02:45:48.403Z,0
2016-08-19T02:47:01.397Z,0
2016-08-19T02:48:14.374Z,0
2016-08-19T02:49:27.375Z,0
2016-08-19T02:50:40.546Z,0
2016-08-19T02:51:53.517Z,0
2016-08-19T02:53:06.706Z,0
2016-08-19T02:54:19.684Z,0
2016-08-19T02:55:32.656Z,0
2016-08-19T02:56:45.638Z,0
2016-08-19T02:57:58.622Z,0
2016-08-19T02:59:11.591Z,0
2016-08-19T03:00:24.568Z,0
2016-08-19T03:01:37.741Z,0
2016-08-19T03:02:50.716Z,0
2016-08-19T03:04:03.693Z,0
2016-08-19T03:05:16.672Z,0
2016-08-19T03:06:29.645Z,0
2016-08-19T03:07:42.630Z,0
2016-08-19T03:08:55.613Z,0
2016-08-19T03:10:08.599Z,0
2016-08-19T03:11:21.620Z,0
2016-08-19T03:12:34.596Z,0
2016-08-19T03:13:47.570Z,0
2016-08-19T03:15:00.555Z,0
2016-08-19T03:16:13.524Z,0
2016-08-19T03:17:26.495Z,0
2016-08-19T03:18:39.693Z,0
2016-08-19T03:19:52.672Z,0
2016-08-19T03:21:05.639Z,0
2016-08-19T03:22:18.618Z,0
2016-08-19T03:23:31.605Z,0
2016-08-19T03:24:44.577Z,0
2016-08-19T03:25:57.547Z,0
2016-08-19T03:27:10.532Z,0
2016-08-19T03:28:23.712Z,0
2016-08-19T03:29:36.705Z,0
2016-08-19T03:30:49.882Z,0
2016-08-19T03:32:02.857Z,0
2016-08-19T03:33:15.842Z,0
2016-08-19T03:34:28.826Z,0
2016-08-19T03:35:41.802Z,0
2016-08-19T03:36:54.777Z,0
2016-08-19T03:38:07.757Z,0
2016-08-19T03:39:20.736Z,0
2016-08-19T03:40:33.711Z,0
2016-08-19T03:41:46.691Z,0
2016-08-19T03:42:59.661Z,4
2016-08-19T03:44:12.648Z,4
2016-08-19T03:45:25.615Z,0
2016-08-19T03:46:38.589Z,4
2016-08-19T03:47:51.567Z,4
2016-08-19T03:49:04.542Z,4
2016-08-19T03:50:17.534Z,4
2016-08-19T03:51:30.503Z,4
2016-08-19T03:52:43.475Z,8
2016-08-19T03:53:56.459Z,12
2016-08-19T03:55:09.433Z,12
2016-08-19T03:56:22.409Z,16
2016-08-19T03:57:35.428Z,16
2016-08-19T03:58:48.615Z,20
2016-08-19T04:00:01.601Z,24
2016-08-19T04:01:14.569Z,28
2016-08-19T04:02:27.543Z,36
2016-08-19T04:03:40.517Z,44
2016-08-19T04:04:53.487Z,48
2016-08-19T04:06:06.457Z,56
2016-08-19T04:07:19.445Z,64
2016-08-19T04:08:32.422Z,72
2016-08-19T04:09:45.598Z,88
2016-08-19T04:10:58.787Z,100
2016-08-19T04:12:11.777Z,116
2016-08-19T04:13:24.763Z,128
2016-08-19T04:14:37.747Z,148
2016-08-19T04:15:50.722Z,168
2016-08-19T04:17:03.685Z,188
2016-08-19T04:18:16.871Z,208
2016-08-19T04:19:30.027Z,232
2016-08-19T04:20:43.006Z,252
2016-08-19T04:21:55.997Z,280
2016-08-19T04:23:09.181Z,312
2016-08-19T04:24:22.148Z,340
2016-08-19T04:25:35.124Z,376
2016-08-19T04:26:48.108Z,408
2016-08-19T04:28:01.091Z,444
2016-08-19T04:29:14.069Z,480
2016-08-19T04:30:27.050Z,520
2016-08-19T04:31:40.022Z,564
2016-08-19T04:32:52.990Z,608
2016-08-19T04:34:05.965Z,652
2016-08-19T04:35:18.941Z,700
2016-08-19T04:36:31.918Z,744
2016-08-19T04:37:44.897Z,796
2016-08-19T04:38:57.876Z,848
2016-08-19T04:40:10.848Z,904
2016-08-19T04:41:23.827Z,956
2016-08-19T04:42:37.006Z,1012
2016-08-19T04:43:50.186Z,1068
2016-08-19T04:45:03.159Z,1128
2016-08-19T04:46:16.346Z,1184
2016-08-19T04:47:29.327Z,1244
2016-08-19T04:48:42.303Z,1308
2016-08-19T04:49:55.298Z,1372
2016-08-19T04:51:08.271Z,1432
2016-08-19T04:52:21.442Z,1492
2016-08-19T04:53:34.621Z,1556
2016-08-19T04:54:47.604Z,1620
2016-08-19T04:56:00.786Z,1712
2016-08-19T04:57:13.957Z,1780
2016-08-19T04:58:26.940Z,1828
2016-08-19T04:59:39.915Z,1908
2016-08-19T05:00:52.900Z,2020
2016-08-19T05:02:05.882Z,2420
2016-08-19T05:03:18.881Z,2504
2016-08-19T05:04:31.863Z,2160
2016-08-19T05:05:44.844Z,2200
2016-08-19T05:06:57.813Z,2280
2016-08-19T05:08:10.985Z,2320
2016-08-19T05:09:24.177Z,2404
2016-08-19T05:10:37.179Z,2664
2016-08-19T05:11:50.157Z,2940
2016-08-19T05:13:03.338Z,2920
2016-08-19T05:14:16.307Z,2824
2016-08-19T05:15:29.287Z,2656
2016-08-19T05:16:42.267Z,4040
2016-08-19T05:17:55.260Z,3616
2016-08-19T05:19:08.436Z,2808
2016-08-19T05:20:21.616Z,2856
2016-08-19T05:21:34.594Z,2912
2016-08-19T05:22:47.572Z,2964
2016-08-19T05:24:00.549Z,3008
2016-08-19T05:25:13.520Z,3056
2016-08-19T05:26:26.703Z,3112
2016-08-19T05:27:39.683Z,3160
2016-08-19T05:28:52.862Z,3352
2016-08-19T05:30:05.839Z,3996
2016-08-19T05:31:18.816Z,3892
2016-08-19T05:32:31.792Z,3440
2016-08-19T05:33:44.795Z,3428
2016-08-19T05:34:57.984Z,3476
2016-08-19T05:36:10.964Z,4056
2016-08-19T05:37:24.141Z,3604
2016-08-19T05:38:37.117Z,3600
2016-08-19T05:39:50.094Z,3644
2016-08-19T05:41:03.070Z,3696
2016-08-19T05:42:16.055Z,3748
2016-08-19T05:43:29.034Z,3780
2016-08-19T05:44:42.003Z,3832
2016-08-19T05:45:54.987Z,3868
2016-08-19T05:47:07.970Z,3900
2016-08-19T05:48:21.153Z,3944
2016-08-19T05:49:34.327Z,3980
2016-08-19T05:50:47.302Z,4020
2016-08-19T05:52:00.282Z,4064
2016-08-19T05:53:13.264Z,4112
2016-08-19T05:54:26.243Z,4168
2016-08-19T05:55:39.218Z,4220
2016-08-19T05:56:52.200Z,4276
2016-08-19T05:58:05.186Z,4320
2016-08-19T05:59:18.156Z,4376
2016-08-19T06:00:31.147Z,4432
2016-08-19T06:01:44.127Z,4480
2016-08-19T06:02:57.104Z,4528
2016-08-19T06:04:10.083Z,4572
2016-08-19T06:05:23.061Z,4616
2016-08-19T06:06:36.035Z,4672
2016-08-19T06:07:49.004Z,4708
2016-08-19T06:09:01.987Z,4748
2016-08-19T06:10:14.962Z,4820
2016-08-19T06:11:27.990Z,4984
2016-08-19T06:12:40.954Z,5532
2016-08-19T06:13:53.914Z,4924
2016-08-19T06:15:06.893Z,4964
2016-08-19T06:16:19.873Z,5004
2016-08-19T06:17:32.842Z,5044
2016-08-19T06:18:45.820Z,5144
2016-08-19T06:19:58.802Z,5180
2016-08-19T06:21:11.773Z,5212
2016-08-19T06:22:24.742Z,5608
2016-08-19T06:23:37.718Z,5820
2016-08-19T06:24:50.689Z,5384
2016-08-19T06:26:03.685Z,6976
2016-08-19T06:27:16.851Z,7004
2016-08-19T06:28:29.837Z,7264
2016-08-19T06:29:42.827Z,6264
2016-08-19T06:30:56.012Z,6600
2016-08-19T06:32:09.187Z,7176
2016-08-19T06:33:22.366Z,7476
2016-08-19T06:34:35.358Z,9208
2016-08-19T06:35:48.338Z,13544
2016-08-19T06:37:01.325Z,20832
2016-08-19T06:38:14.299Z,27232
2016-08-19T06:39:27.289Z,49856
2016-08-19T06:40:40.261Z,60704
2016-08-19T06:41:53.247Z,63392
2016-08-19T06:43:06.235Z,64288
2016-08-19T06:44:19.217Z,64352
2016-08-19T06:45:32.406Z,64000
2016-08-19T06:46:45.393Z,63456
2016-08-19T06:47:58.380Z,62752
2016-08-19T06:49:11.372Z,61632
2016-08-19T06:50:24.354Z,64224
2016-08-19T06:51:37.348Z,64928
2016-08-19T06:52:50.329Z,66496
2016-08-19T06:54:03.315Z,68832
2016-08-19T06:55:16.510Z,70304
2016-08-19T06:56:29.505Z,70496
2016-08-19T06:57:42.493Z,69536
2016-08-19T06:58:55.487Z,69952
2016-08-19T07:00:08.480Z,71968
2016-08-19T07:01:21.478Z,73696
2016-08-19T07:02:34.470Z,73984
2016-08-19T07:03:47.465Z,75616
2016-08-19T07:05:00.458Z,78624
2016-08-19T07:06:13.455Z,77248
2016-08-19T07:07:26.655Z,76992
2016-08-19T07:08:39.650Z,75520
2016-08-19T07:09:52.845Z,75232
2016-08-19T07:11:05.832Z,76256
2016-08-19T07:12:19.033Z,74784
2016-08-19T07:13:32.027Z,74912
2016-08-19T07:14:45.219Z,76480
2016-08-19T07:15:58.213Z,79840
2016-08-19T07:17:11.412Z,77056
2016-08-19T07:18:24.402Z,74048
2016-08-19T07:19:37.394Z,76544
2016-08-19T07:20:50.385Z,77824
2016-08-19T07:22:03.378Z,76480
2016-08-19T07:23:16.385Z,74464
2016-08-19T07:24:29.392Z,73184
2016-08-19T07:25:42.396Z,72224
2016-08-19T07:26:55.398Z,73568
2016-08-19T07:28:08.395Z,75648
2016-08-19T07:29:21.393Z,74816
2016-08-19T07:30:34.408Z,75008
2016-08-19T07:31:47.610Z,76544
2016-08-19T07:33:00.613Z,76608
2016-08-19T07:34:13.623Z,77216
2016-08-19T07:35:26.624Z,78304
2016-08-19T07:36:39.648Z,78848
2016-08-19T07:37:52.657Z,79712
2016-08-19T07:39:05.654Z,75168
2016-08-19T07:40:18.649Z,76352
2016-08-19T07:41:31.649Z,77120
2016-08-19T07:42:44.653Z,76768
2016-08-19T07:43:57.670Z,78208
2016-08-19T07:45:10.672Z,78784
2016-08-19T07:46:23.685Z,74336
2016-08-19T07:47:36.685Z,75040
2016-08-19T07:48:49.688Z,78848
2016-08-19T07:50:02.695Z,78336
2016-08-19T07:51:15.902Z,77760
2016-08-19T07:52:28.904Z,79104
2016-08-19T07:53:41.919Z,81760
2016-08-19T07:54:54.923Z,81664
2016-08-19T07:56:07.921Z,81888
2016-08-19T07:57:20.937Z,83136
2016-08-19T07:58:34.145Z,85248
2016-08-19T07:59:47.144Z,87008
2016-08-19T08:01:00.346Z,89184
2016-08-19T08:02:13.556Z,90016
2016-08-19T08:03:26.562Z,88640
2016-08-19T08:04:39.565Z,86816
2016-08-19T08:05:52.578Z,85600
2016-08-19T08:07:05.574Z,83264
2016-08-19T08:08:18.574Z,84192
2016-08-19T08:09:31.591Z,87808
2016-08-19T08:10:44.592Z,86784
2016-08-19T08:11:57.655Z,84640
2016-08-19T08:13:10.664Z,81568
2016-08-19T08:14:23.662Z,80128
2016-08-19T08:15:36.673Z,80384
2016-08-19T08:16:49.688Z,77888
2016-08-19T08:18:02.714Z,76608
2016-08-19T08:19:15.720Z,75328
2016-08-19T08:20:28.728Z,74912
2016-08-19T08:21:41.729Z,80768
2016-08-19T08:22:54.739Z,85760
2016-08-19T08:24:07.759Z,85312
2016-08-19T08:25:20.759Z,85056
2016-08-19T08:26:33.764Z,85280
2016-08-19T08:27:46.769Z,85440
2016-08-19T08:28:59.981Z,84128
2016-08-19T08:30:13.387Z,83264
2016-08-19T08:31:26.810Z,87392
2016-08-19T08:32:39.814Z,91136
2016-08-19T08:33:52.817Z,92288
2016-08-19T08:35:05.823Z,93056
2016-08-19T08:36:18.845Z,90688
2016-08-19T08:37:32.048Z,88032
2016-08-19T08:38:45.065Z,87072
2016-08-19T08:39:58.076Z,84992
2016-08-19T08:41:11.283Z,84480
2016-08-19T08:42:24.282Z,86784
2016-08-19T08:43:37.286Z,88160
2016-08-19T08:44:50.294Z,87776
2016-08-19T08:46:03.305Z,88512
2016-08-19T08:47:16.313Z,88160
2016-08-19T08:48:29.329Z,89312
2016-08-19T08:49:42.336Z,89504
2016-08-19T08:50:55.542Z,88288
2016-08-19T08:52:08.555Z,85408
2016-08-19T08:53:21.769Z,84224
2016-08-19T08:54:34.787Z,87584
2016-08-19T08:55:48.042Z,90496
2016-08-19T08:57:01.249Z,89920
2016-08-19T08:58:14.458Z,90240
2016-08-19T08:59:27.668Z,93056
2016-08-19T09:00:40.691Z,91936
2016-08-19T09:01:53.703Z,92160
2016-08-19T09:03:06.704Z,91648
2016-08-19T09:04:19.711Z,92544
2016-08-19T09:05:32.730Z,93920
2016-08-19T09:06:45.735Z,94208
2016-08-19T09:07:58.936Z,95456
2016-08-19T09:09:11.943Z,98080
2016-08-19T09:10:24.957Z,97760
2016-08-19T09:11:37.961Z,96704
2016-08-19T09:12:51.178Z,98432
2016-08-19T09:14:04.184Z,104384
2016-08-19T09:15:17.399Z,106432
2016-08-19T09:16:30.408Z,102944
2016-08-19T09:17:43.417Z,97632
2016-08-19T09:18:56.425Z,95936
2016-08-19T09:20:09.643Z,98464
2016-08-19T09:21:22.648Z,96768
2016-08-19T09:22:35.651Z,97344
2016-08-19T09:23:48.659Z,104224
2016-08-19T09:25:01.883Z,103904
2016-08-19T09:26:14.897Z,97952
2016-08-19T09:27:27.907Z,98080
2016-08-19T09:28:41.113Z,91904
2016-08-19T09:29:54.115Z,83904
2016-08-19T09:31:07.127Z,80608
2016-08-19T09:32:20.561Z,73152
2016-08-19T09:33:33.570Z,70112
2016-08-19T09:35:24.083Z,80320
2016-08-19T09:37:14.944Z,66752
2016-08-19T09:38:28.155Z,56256
2016-08-19T09:39:41.594Z,49568
2016-08-19T09:40:54.627Z,46912
2016-08-19T09:42:07.642Z,46144
2016-08-19T09:43:20.644Z,42880
2016-08-19T09:44:33.645Z,41664
2016-08-19T09:45:46.656Z,43232
2016-08-19T09:46:59.674Z,45792
2016-08-19T09:48:12.673Z,44288
2016-08-19T09:49:25.684Z,49600
2016-08-19T09:50:38.686Z,59808
2016-08-19T09:51:51.705Z,63968
2016-08-19T09:53:04.719Z,64384
2016-08-19T09:54:17.927Z,61184
2016-08-19T09:55:30.936Z,63360
2016-08-19T09:56:43.940Z,72992
2016-08-19T09:57:56.949Z,70752
2016-08-19T09:59:10.174Z,70336
2016-08-19T10:00:23.383Z,64608
2016-08-19T10:01:36.380Z,57184
2016-08-19T10:02:49.390Z,57216
2016-08-19T10:04:02.601Z,56320
2016-08-19T10:05:15.609Z,55968
2016-08-19T10:06:28.612Z,59584
2016-08-19T10:07:42.016Z,63296
2016-08-19T10:08:55.022Z,57248
2016-08-19T10:10:08.032Z,58880
2016-08-19T10:11:21.035Z,66688
2016-08-19T10:12:34.038Z,66624
2016-08-19T10:13:47.046Z,58720
2016-08-19T10:15:00.056Z,57312
2016-08-19T10:16:13.068Z,57024
2016-08-19T10:17:26.279Z,54848
2016-08-19T10:18:39.278Z,55296
2016-08-19T10:19:52.274Z,57088
2016-08-19T10:21:05.286Z,59872
2016-08-19T10:22:18.292Z,62016
2016-08-19T10:23:31.301Z,66464
2016-08-19T10:24:44.302Z,66144
2016-08-19T10:25:57.310Z,66208
2016-08-19T10:27:10.322Z,68864
2016-08-19T10:28:23.325Z,73184
2016-08-19T10:29:36.325Z,74816
2016-08-19T10:30:49.346Z,72224
2016-08-19T10:32:02.359Z,75040
2016-08-19T10:33:15.358Z,69024
2016-08-19T10:34:28.567Z,71200
2016-08-19T10:35:41.776Z,75104
2016-08-19T10:36:54.791Z,62848
2016-08-19T10:38:07.801Z,65280
2016-08-19T10:39:20.803Z,73504
2016-08-19T10:40:33.811Z,73952
2016-08-19T10:41:47.021Z,70592
2016-08-19T10:43:00.035Z,67488
2016-08-19T10:44:13.059Z,68224
2016-08-19T10:45:26.061Z,68736
2016-08-19T10:46:39.070Z,67232
2016-08-19T10:47:52.286Z,71104
2016-08-19T10:49:05.286Z,70368
2016-08-19T10:50:18.488Z,66400
2016-08-19T10:51:31.504Z,61952
2016-08-19T10:52:44.502Z,54592
2016-08-19T10:53:57.515Z,55488
2016-08-19T10:55:10.525Z,60256
2016-08-19T10:56:23.526Z,59552
2016-08-19T10:57:36.540Z,64416
2016-08-19T10:58:49.558Z,67680
2016-08-19T11:00:02.580Z,64288
2016-08-19T11:01:15.585Z,61472
2016-08-19T11:02:28.596Z,65024
2016-08-19T11:03:41.621Z,66336
2016-08-19T11:04:54.625Z,67648
2016-08-19T11:06:07.624Z,64288
2016-08-19T11:07:20.631Z,64000
2016-08-19T11:08:33.637Z,65408
2016-08-19T11:09:46.638Z,63200
2016-08-19T11:10:59.657Z,61184
2016-08-19T11:12:12.721Z,61216
2016-08-19T11:13:25.733Z,58912
2016-08-19T11:14:38.944Z,55904
2016-08-19T11:15:51.948Z,58528
2016-08-19T11:17:04.970Z,58592
2016-08-19T11:18:17.987Z,55904
2016-08-19T11:19:31.202Z,55456
2016-08-19T11:20:44.212Z,52576
2016-08-19T11:21:57.428Z,55008
2016-08-19T11:23:10.638Z,54976
2016-08-19T11:24:23.656Z,54752
2016-08-19T11:25:36.671Z,55584
2016-08-19T11:26:49.711Z,48512
2016-08-19T11:28:02.719Z,47776
2016-08-19T11:29:15.723Z,49536
2016-08-19T11:30:28.731Z,47904
2016-08-19T11:31:41.749Z,48928
2016-08-19T11:32:54.756Z,47936
2016-08-19T11:34:07.768Z,46304
2016-08-19T11:35:20.770Z,48480
2016-08-19T11:36:33.776Z,46560
2016-08-19T11:37:46.885Z,46656
2016-08-19T11:38:59.887Z,46656
2016-08-19T11:40:12.892Z,45248
2016-08-19T11:41:25.899Z,44608
2016-08-19T11:42:38.906Z,42560
2016-08-19T11:43:51.937Z,41344
2016-08-19T11:45:04.953Z,42560
2016-08-19T11:46:17.971Z,40864
2016-08-19T11:47:30.976Z,37664
2016-08-19T11:48:43.980Z,41600
2016-08-19T11:49:56.983Z,41344
2016-08-19T11:51:09.995Z,39744
2016-08-19T11:52:23.002Z,35936
2016-08-19T11:53:36.034Z,37728
2016-08-19T11:54:49.043Z,35936
2016-08-19T11:56:02.047Z,30944
2016-08-19T11:57:15.259Z,31232
2016-08-19T11:58:28.263Z,34304
2016-08-19T11:59:41.273Z,34496
2016-08-19T12:00:54.296Z,31424
2016-08-19T12:02:07.295Z,33120
2016-08-19T12:03:20.314Z,30336
2016-08-19T12:04:33.313Z,26688
2016-08-19T12:05:46.521Z,25376
2016-08-19T12:06:59.729Z,25792
2016-08-19T12:08:12.739Z,26016
2016-08-19T12:09:25.743Z,27456
2016-08-19T12:10:38.748Z,25184
2016-08-19T12:11:51.762Z,25088
2016-08-19T12:13:04.867Z,24384
2016-08-19T12:14:18.072Z,26912
2016-08-19T12:15:31.081Z,25760
2016-08-19T12:16:44.255Z,26816
2016-08-19T12:17:57.464Z,26464
2016-08-19T12:19:10.473Z,28256
2016-08-19T12:20:23.472Z,29088
2016-08-19T12:21:36.485Z,28800
2016-08-19T12:22:49.483Z,28224
2016-08-19T12:24:02.495Z,26560
2016-08-19T12:25:15.492Z,26560
2016-08-19T12:26:28.492Z,23232
2016-08-19T12:27:41.499Z,20096
2016-08-19T12:28:54.688Z,22720
2016-08-19T12:30:07.687Z,22944
2016-08-19T12:31:20.692Z,23424
2016-08-19T12:32:33.699Z,22912
2016-08-19T12:33:46.940Z,22080
2016-08-19T12:34:59.953Z,21856
2016-08-19T12:36:13.180Z,22112
2016-08-19T12:37:26.195Z,23008
2016-08-19T12:38:39.319Z,21600
2016-08-19T12:39:52.323Z,20800
2016-08-19T12:41:05.318Z,21728
2016-08-19T12:42:18.318Z,20192
2016-08-19T12:43:31.318Z,19680
2016-08-19T12:44:44.328Z,17632
2016-08-19T12:45:57.329Z,17568
2016-08-19T12:47:10.333Z,15520
2016-08-19T12:48:23.336Z,15104
2016-08-19T12:49:36.337Z,13696
2016-08-19T12:50:49.331Z,13220
2016-08-19T12:52:02.329Z,14240
2016-08-19T12:53:15.336Z,14848
2016-08-19T12:54:28.331Z,14528
2016-08-19T12:55:41.344Z,14496
2016-08-19T12:56:54.345Z,14272
2016-08-19T12:58:07.340Z,14080
2016-08-19T12:59:20.339Z,13952
2016-08-19T13:00:33.343Z,13440
2016-08-19T13:01:46.351Z,12784
2016-08-19T13:02:59.357Z,12664
2016-08-19T13:04:12.356Z,12344
2016-08-19T13:05:25.354Z,11756
2016-08-19T13:06:38.356Z,11732
2016-08-19T13:07:51.354Z,11216
2016-08-19T13:09:04.358Z,10816
2016-08-19T13:10:17.365Z,10732
2016-08-19T13:11:30.380Z,10600
2016-08-19T13:12:43.443Z,10252
2016-08-19T13:13:56.654Z,9608
2016-08-19T13:15:09.647Z,9268
2016-08-19T13:16:22.643Z,8952
2016-08-19T13:17:35.639Z,8484
2016-08-19T13:18:48.834Z,8040
2016-08-19T13:20:01.842Z,7760
2016-08-19T13:21:14.845Z,7972
2016-08-19T13:22:27.841Z,7912
2016-08-19T13:23:40.843Z,7764
2016-08-19T13:24:53.869Z,8016
2016-08-19T13:26:07.066Z,8348
2016-08-19T13:27:20.062Z,7516
2016-08-19T13:28:33.263Z,7196
2016-08-19T13:29:46.259Z,7312
2016-08-19T13:30:59.463Z,7212
2016-08-19T13:32:12.472Z,6944
2016-08-19T13:33:25.471Z,7768
2016-08-19T13:34:39.002Z,8292
2016-08-19T13:35:52.470Z,8004
2016-08-19T13:37:05.470Z,8100
2016-08-19T13:38:18.466Z,8416
2016-08-19T13:39:31.474Z,8612
2016-08-19T13:40:44.475Z,8112
2016-08-19T13:41:57.470Z,8652
2016-08-19T13:43:10.469Z,9004
2016-08-19T13:44:23.486Z,9068
2016-08-19T13:45:36.499Z,9160
2016-08-19T13:46:49.699Z,9016
2016-08-19T13:48:02.696Z,9108
2016-08-19T13:49:15.692Z,9264
2016-08-19T13:50:28.700Z,9248
2016-08-19T13:51:41.699Z,8644
2016-08-19T13:52:54.695Z,7544
2016-08-19T13:54:07.692Z,7132
2016-08-19T13:55:20.890Z,7440
2016-08-19T13:56:33.897Z,7932
2016-08-19T13:57:46.893Z,8252
2016-08-19T13:58:59.893Z,8696
2016-08-19T14:00:12.887Z,8804
2016-08-19T14:01:26.084Z,8200
2016-08-19T14:02:39.080Z,8144
2016-08-19T14:03:52.291Z,8444
2016-08-19T14:05:05.287Z,8756
2016-08-19T14:06:18.272Z,9036
2016-08-19T14:07:31.264Z,9144
2016-08-19T14:08:44.258Z,9176
2016-08-19T14:09:57.258Z,9240
2016-08-19T14:11:10.255Z,9088
2016-08-19T14:12:23.259Z,8948
2016-08-19T14:13:36.317Z,8784
2016-08-19T14:14:49.510Z,7624
2016-08-19T14:16:02.500Z,7204
2016-08-19T14:17:15.500Z,7152
2016-08-19T14:18:28.501Z,7112
2016-08-19T14:19:41.495Z,7000
2016-08-19T14:20:54.854Z,7096
2016-08-19T14:22:07.842Z,7500
2016-08-19T14:23:20.833Z,7656
2016-08-19T14:24:33.837Z,7628
2016-08-19T14:25:46.843Z,7616
2016-08-19T14:26:59.844Z,7584
2016-08-19T14:28:12.843Z,7420
2016-08-19T14:29:25.874Z,7256
2016-08-19T14:30:38.867Z,7016
2016-08-19T14:31:51.872Z,6992
2016-08-19T14:33:04.874Z,7068
2016-08-19T14:34:18.072Z,6940
2016-08-19T14:35:31.069Z,6516
2016-08-19T14:36:44.075Z,6028
2016-08-19T14:37:57.087Z,6184
2016-08-19T14:39:10.080Z,6232
2016-08-19T14:40:23.098Z,6284
2016-08-19T14:41:36.092Z,6388
2016-08-19T14:42:49.089Z,6348
2016-08-19T14:44:02.089Z,6212
2016-08-19T14:45:15.284Z,5324
2016-08-19T14:46:28.275Z,5384
2016-08-19T14:47:41.266Z,5992
2016-08-19T14:48:54.457Z,5944
2016-08-19T14:50:07.453Z,5812
2016-08-19T14:51:20.446Z,5372
2016-08-19T14:52:33.446Z,5172
2016-08-19T14:53:46.443Z,5372
2016-08-19T14:54:59.424Z,5424
2016-08-19T14:56:12.418Z,5456
2016-08-19T14:57:25.809Z,5280
2016-08-19T14:58:38.807Z,5544
2016-08-19T14:59:51.810Z,5528
2016-08-19T15:01:04.807Z,5596
2016-08-19T15:02:17.999Z,5620
2016-08-19T15:03:31.189Z,5632
2016-08-19T15:04:44.174Z,5648
2016-08-19T15:05:57.166Z,5588
2016-08-19T15:07:10.151Z,5424
2016-08-19T15:08:23.150Z,5148
2016-08-19T15:09:36.141Z,5040
2016-08-19T15:10:49.141Z,4996
2016-08-19T15:12:02.145Z,4988
2016-08-19T15:13:15.137Z,4968
2016-08-19T15:14:28.136Z,5080
2016-08-19T15:15:41.133Z,5592
2016-08-19T15:16:54.128Z,5832
2016-08-19T15:18:07.116Z,6072
2016-08-19T15:19:20.128Z,6372
2016-08-19T15:20:33.326Z,6720
2016-08-19T15:21:46.315Z,6844
2016-08-19T15:22:59.307Z,6672
2016-08-19T15:24:12.302Z,6180
2016-08-19T15:25:25.303Z,5744
2016-08-19T15:26:38.295Z,5424
2016-08-19T15:27:51.532Z,5140
2016-08-19T15:29:04.531Z,4888
2016-08-19T15:30:17.525Z,4732
2016-08-19T15:31:30.547Z,4700
2016-08-19T15:32:43.538Z,4832
2016-08-19T15:33:56.536Z,4812
2016-08-19T15:35:09.560Z,4712
2016-08-19T15:36:22.553Z,4720
2016-08-19T15:37:35.552Z,4712
2016-08-19T15:38:48.558Z,4700
2016-08-19T15:40:01.801Z,4688
2016-08-19T15:41:14.803Z,4652
2016-08-19T15:42:27.797Z,4616
2016-08-19T15:43:40.998Z,4532
2016-08-19T15:44:54.186Z,4472
2016-08-19T15:46:07.195Z,4444
2016-08-19T15:47:20.178Z,4472
2016-08-19T15:48:33.178Z,4512
2016-08-19T15:49:46.165Z,4548
2016-08-19T15:50:59.153Z,4564
2016-08-19T15:52:12.745Z,4556
2016-08-19T15:53:25.749Z,4536
2016-08-19T15:54:38.739Z,4552
2016-08-19T15:55:51.746Z,4576
2016-08-19T15:57:04.737Z,4588
2016-08-19T15:58:17.750Z,4584
2016-08-19T15:59:30.745Z,4532
2016-08-19T16:00:43.741Z,4428
2016-08-19T16:01:56.735Z,4316
2016-08-19T16:03:09.727Z,4256
2016-08-19T16:04:22.719Z,4228
2016-08-19T16:05:35.720Z,4256
2016-08-19T16:06:48.713Z,4332
2016-08-19T16:08:01.728Z,4368
2016-08-19T16:09:14.919Z,4364
2016-08-19T16:10:27.920Z,4284
2016-08-19T16:11:40.966Z,4296
2016-08-19T16:12:53.961Z,4360
2016-08-19T16:14:06.998Z,4440
2016-08-19T16:15:20.393Z,4500
2016-08-19T16:16:33.387Z,4560
2016-08-19T16:17:46.372Z,4624
2016-08-19T16:18:59.361Z,4700
2016-08-19T16:20:12.565Z,4652
2016-08-19T16:21:25.570Z,4556
2016-08-19T16:22:38.759Z,4480
2016-08-19T16:23:51.953Z,4384
2016-08-19T16:25:04.939Z,4288